Charlottetown, Prince Edward Island

8:43 PM ADT on July 28, 2016 (GMT -0300)
Charlottetown | | Change Station

Elev 157 ft 46.29 °N, 63.13 °W | Updated 43 minutes ago

Mostly Cloudy
Mostly Cloudy
75 °F
Feels Like 75 °F
N
5
Wind Variable Wind from South

Today
High -- | Low -- °F
--% Chance of Precip.
Yesterday
High -- | Low -- °F
Precip. -- in
Pressure 29.88 in
Visibility 15.0 miles
Clouds Few 1000 ft
Few 2400 ft
Scattered Clouds 11000 ft
Mostly Cloudy 22000 ft
Dew Point 66 °F
Humidity 73%
Rainfall 0.00 in
Snow Depth Not available.
5:49 AM 8:47 PM
Waning Crescent, 27% visible
METAR CYYG 282300Z 19004KT 15SM FEW010 FEW024 SCT110 BKN220 24/19 A2988 RMK SF1CU2AC2CI3 SF TR TCU ASOCTD SLP119 DENSITY ALT 1300FT
Pressure 29.88 in
Visibility 15.0 miles
Clouds Few 1000 ft
Few 2400 ft
Scattered Clouds 11000 ft
Mostly Cloudy 22000 ft
Dew Point 66 °F
Humidity 73%
Rainfall 0.00 in
Snow Depth Not available.
5:49 AM 8:47 PM
Waning Crescent, 27% visible
METAR CYYG 282300Z 19004KT 15SM FEW010 FEW024 SCT110 BKN220 24/19 A2988 RMK SF1CU2AC2CI3 SF TR TCU ASOCTD SLP119 DENSITY ALT 1300FT

10-Day Weather Forecast

No radar image for this location.
×

Almanac

Astronomy

Jul. 28, 2016 Rise Set
Actual Time
Civil Twilight
Nautical Twilight
Astronomical Twilight
Moon
Length of Visible Light
Length of Day
Tomorrow will be .
, % of the Moon is Illuminated

Today's Extremes

Country Highs Country Lows

Community

WunderPhotos

Upload Photos

1,928,236 photos uploaded!

WunderBlog® & News

Nearby

Air Quality

  Air Quality AQ Index Pollutant
Not available.

Snow Depth

Station Depth Elevation

Earthquake Activity

City Distance Mag. Time & Date
Minimum magnitude displayed is 2.5.

Coastal Water Temperatures

Place Temperature

Stations

Nearby Weather Stations

Station Location Temp. Windchill Dew Point Humidity Wind Precip. Elev Updated Type
                   

Watches & Warnings

There are currently no watches in effect.